Terminal Aerodrome Forecast
Issued by NWS

Home | Current Version | Previous Version | Text Only | Print | Product List | Glossary On
Versions: 1 2 3 4 5 6 7 8 9 10 11 12 13 14 15 16
465
FTUS43 KLSX 261726
TAFSUS
TAF
KSUS 261726Z 2618/2718 VRB04KT P6SM SCT050 BKN150
     FM262000 11006KT P6SM VCTS BKN040CB BKN150
     FM270000 VRB03KT P6SM SCT050 BKN120
     FM270600 18005KT P6SM BKN250=

USA.gov is the U.S. government's official web portal to all federal, state and local government web resources and services.